Med Island — 9HA3839 — position and weather

sailwx.info

Track history (hours):
 
Tides and Currents Weather Stations Pressure Air Temp Water Temp Dewpoint Dewpoint Depression Visibility Wind Speed Wind Dir Waves Ship Positions

Med Island

Last reported at 2017-Oct-05 18:01 UTC. Time now 2017-Oct-20 08:54 UTC.
Position N 34°39' E 031°32'.
Warning: this ship's position is 14 days out of date.

Length 170 m; draft 9.7 m.

Type: Cargo ship. MMSI: 256155000.

Date/timePositionNaut miles runAvg speedWind from/ knotsBaromVisibWave heightAir tempDewpointWater temp
2017-Oct-05 18:01N 34°39' E 031°32'011.4
2017-Oct-05 18:00N 34°39' E 031°32'  
2017-Oct-02 15:08N 36°23' E 014°47'211.4
2017-Oct-02 15:00N 36°23' E 014°45'611.3
2017-Oct-02 14:30N 36°24' E 014°38'611.2
2017-Oct-02 14:00N 36°25' E 014°31'611.4
2017-Oct-02 13:30N 36°25' E 014°24'611.4
2017-Oct-02 13:00N 36°26' E 014°17'511.1
2017-Oct-02 12:30N 36°27' E 014°10'611.1
2017-Oct-02 12:00N 36°27' E 014°03'611.0
2017-Oct-02 11:29N 36°28' E 013°57'  
2017-Sep-29 00:46N 36°01' W 005°11'310.8
2017-Sep-29 00:30N 36°00' W 005°14'510.7
2017-Sep-29 00:00N 35°59' W 005°21'510.6
2017-Sep-28 23:30N 35°58' W 005°27'611.1
2017-Sep-28 22:57N 35°56' W 005°34'511.0
2017-Sep-28 22:30N 35°54' W 005°40'  
Track history (hours):
 
Tides and Currents Weather Stations Pressure Air Temp Water Temp Dewpoint Dewpoint Depression Visibility Wind Speed Wind Dir Waves Ship Positions

Med Island

Last reported at 2017-Oct-05 18:01 UTC. Time now 2017-Oct-20 08:54 UTC.
Position N 34°39' E 031°32'.
Warning: this ship's position is 14 days out of date.

Length 170 m; draft 9.7 m.

Type: Cargo ship. MMSI: 256155000.

Date/timePositionNaut miles runAvg speedWind from/ knotsBaromVisibWave heightAir tempDewpointWater temp
2017-Oct-05 18:01N 34°39' E 031°32'011.4
2017-Oct-05 18:00N 34°39' E 031°32'  
2017-Oct-02 15:08N 36°23' E 014°47'211.4
2017-Oct-02 15:00N 36°23' E 014°45'611.3
2017-Oct-02 14:30N 36°24' E 014°38'611.2
2017-Oct-02 14:00N 36°25' E 014°31'611.4
2017-Oct-02 13:30N 36°25' E 014°24'611.4
2017-Oct-02 13:00N 36°26' E 014°17'511.1
2017-Oct-02 12:30N 36°27' E 014°10'611.1
2017-Oct-02 12:00N 36°27' E 014°03'611.0
2017-Oct-02 11:29N 36°28' E 013°57'  
2017-Sep-29 00:46N 36°01' W 005°11'310.8
2017-Sep-29 00:30N 36°00' W 005°14'510.7
2017-Sep-29 00:00N 35°59' W 005°21'510.6
2017-Sep-28 23:30N 35°58' W 005°27'611.1
2017-Sep-28 22:57N 35°56' W 005°34'511.0
2017-Sep-28 22:30N 35°54' W 005°40'  

Dump ship's entire track history